COMO2: Grand River, Commerce, OK

Data processed at Sun Sep 23 2018 22:02


All information presented herein is the property of the government of the United States of America and may be revised or deleted at any time without prior notice.
Dissemination of this information without the expressed written consent of the Public Affairs Office, Tulsa District U.S. Army Corps of Engineers is strictly prohibited.
These data are gathered electronically and, as presented, have not undergone any form of quality control. These data are not guaranteed to be valid or correct.
Go to home page.
Go to station list.
Go to home page.

Upstream stations:

Downstream station:
Previous Day
Next Day
Current Day
    
SHEF ID:       COMO2     Neosho River nr Commerce, OK
STATION TYPE:  

               PRECIP     STAGE  STAGE(2)  RIV-FLOW  BAT-LOAD
                   in        ft        ft       cfs      volt
              Ccp-Rev   Ccp-Rev   Ccp-Rev   Ccp-Rev   Ccp-Rev
(US/Central)
09/23 00:00      0.00      4.42      4.35      2764     12.65
09/23 01:00      0.00      4.39      4.32      2714     12.65
09/23 02:00      0.00      4.37      4.30      2682     12.65
09/23 03:00      0.00      4.35      4.28      2649     12.65
09/23 04:00      0.00      4.32      4.26      2600     12.65
09/23 05:00      0.00      4.30      4.23      2566     12.65
09/23 06:00      0.00      4.27      4.21      2517     12.65
09/23 07:00      0.00      4.25      4.18      2484     12.65
09/23 08:00      0.00      4.22      4.16      2434     12.65
09/23 09:00      0.00      4.20      4.13      2401     12.65
09/23 10:00      0.00      4.17      4.11      2352     13.05
09/23 11:00      0.00      4.14      4.08      2302     13.13
09/23 12:00      0.00      4.12      4.06      2270     13.44
09/23 13:00      0.00      4.09      4.05      2221     13.53
09/23 14:00      0.00      4.07      4.02      2188     13.29
09/23 15:00      0.00      4.05      4.00      2156     12.97
09/23 16:00      0.00      4.02      3.98      2107     12.97
09/23 17:00      0.00      4.00      3.96      2075     12.89
09/23 18:00      0.00      3.99      3.94      2058     12.81
09/23 19:00      0.00      3.97      3.92      2026     12.73
09/23 20:00      0.00      3.96      3.91      2010     12.73
09/23 21:00      0.00      3.94      3.88      1978     12.65
09/23 22:00      ----      ----      ----      ----      ----
09/23 23:00      ----      ----      ----      ----      ----